createdAt,value
2023-05-11T00:01:26.464Z,0.32
2023-05-11T00:03:53.245Z,0.40
2023-05-11T00:06:19.860Z,0.90
2023-05-11T00:08:46.416Z,0.55
2023-05-11T00:11:13.133Z,0.57
2023-05-11T00:13:39.741Z,0.38
2023-05-11T00:16:06.521Z,0.47
2023-05-11T00:18:33.119Z,0.50
2023-05-11T00:20:59.795Z,1.08
2023-05-11T00:23:26.438Z,0.60
2023-05-11T00:25:53.039Z,0.57
2023-05-11T00:28:19.777Z,0.40
2023-05-11T00:30:46.485Z,0.32
2023-05-11T00:33:13.066Z,0.40
2023-05-11T00:35:39.634Z,0.28
2023-05-11T00:38:06.627Z,0.50
2023-05-11T00:40:33.577Z,0.50
2023-05-11T00:43:00.839Z,0.40
2023-05-11T00:45:27.745Z,0.40
2023-05-11T00:47:54.311Z,0.30
2023-05-11T00:50:21.133Z,0.38
2023-05-11T00:52:48.095Z,0.40
2023-05-11T00:55:15.060Z,0.43
2023-05-11T00:57:41.684Z,0.50
2023-05-11T01:00:11.422Z,0.30
2023-05-11T01:02:38.365Z,0.30
2023-05-11T01:08:07.078Z,0.10
2023-05-11T01:10:43.506Z,0.22
2023-05-11T01:13:30.851Z,0.40
2023-05-11T01:15:58.362Z,0.30
2023-05-11T01:18:37.505Z,0.40
2023-05-11T01:21:11.846Z,0.60
2023-05-11T01:23:53.985Z,0.35
2023-05-11T01:27:15.559Z,0.43
2023-05-11T01:29:56.284Z,0.20
2023-05-11T01:32:26.396Z,0.30
2023-05-11T01:35:02.743Z,0.30
2023-05-11T01:37:32.524Z,0.40
2023-05-11T01:40:03.696Z,0.25
2023-05-11T01:42:48.948Z,0.55
2023-05-11T01:45:17.253Z,0.35
2023-05-11T01:47:48.841Z,0.35
2023-05-11T01:50:17.550Z,0.40
2023-05-11T01:52:47.058Z,0.40
2023-05-11T01:55:17.478Z,0.35
2023-05-11T01:57:45.471Z,0.30
2023-05-11T02:00:15.975Z,0.45
2023-05-11T02:02:44.660Z,0.35
2023-05-11T02:05:12.152Z,0.32
2023-05-11T02:10:10.878Z,0.68
2023-05-11T02:12:39.659Z,0.22
2023-05-11T02:15:08.998Z,0.20
2023-05-11T02:17:36.606Z,0.40
2023-05-11T02:20:04.886Z,0.15
2023-05-11T02:22:33.620Z,0.45
2023-05-11T02:25:00.390Z,0.30
2023-05-11T02:27:27.256Z,0.28
2023-05-11T02:29:55.451Z,0.32
2023-05-11T02:32:25.092Z,0.20
2023-05-11T02:35:00.988Z,0.30
2023-05-11T02:37:29.090Z,0.50
2023-05-11T02:42:27.816Z,0.32
2023-05-11T02:45:03.616Z,0.63
2023-05-11T02:47:39.105Z,0.40
2023-05-11T02:50:09.179Z,0.20
2023-05-11T02:52:44.943Z,0.35
2023-05-11T02:55:14.908Z,0.30
2023-05-11T02:57:42.987Z,0.20
2023-05-11T03:00:11.111Z,0.30
2023-05-11T03:02:37.914Z,0.30
2023-05-11T03:05:05.876Z,0.25
2023-05-11T03:07:33.672Z,0.20
2023-05-11T03:10:02.615Z,0.20
2023-05-11T03:12:33.380Z,0.28
2023-05-11T03:15:01.077Z,0.20
2023-05-11T03:17:30.681Z,0.20
2023-05-11T03:19:59.169Z,0.20
2023-05-11T03:22:27.411Z,0.20
2023-05-11T03:24:54.070Z,0.30
2023-05-11T03:27:21.625Z,0.22
2023-05-11T03:29:50.086Z,0.20
2023-05-11T03:32:17.089Z,0.40
2023-05-11T03:34:44.318Z,0.40
2023-05-11T03:37:14.836Z,0.20
2023-05-11T03:39:46.611Z,0.60
2023-05-11T03:42:15.673Z,0.32
2023-05-11T03:44:46.164Z,0.30
2023-05-11T03:47:14.271Z,0.10
2023-05-11T03:52:08.831Z,0.10
2023-05-11T03:54:36.295Z,0.20
2023-05-11T03:57:02.936Z,0.30
2023-05-11T03:59:29.799Z,0.10
2023-05-11T04:01:56.522Z,0.20
2023-05-11T04:04:30.044Z,0.38
2023-05-11T04:06:59.343Z,0.10
2023-05-11T04:09:26.244Z,0.40
2023-05-11T04:11:52.937Z,0.30
2023-05-11T04:14:19.809Z,0.20
2023-05-11T04:16:46.606Z,0.28
2023-05-11T04:19:13.254Z,0.30
2023-05-11T04:21:39.818Z,0.30
2023-05-11T04:24:06.609Z,0.10
2023-05-11T04:26:33.294Z,0.35
2023-05-11T04:28:59.995Z,0.32
2023-05-11T04:31:26.616Z,0.52
2023-05-11T04:33:53.316Z,0.43
2023-05-11T04:36:20.066Z,0.20
2023-05-11T04:38:46.717Z,0.25
2023-05-11T04:41:14.277Z,0.20
2023-05-11T04:43:41.719Z,0.30
2023-05-11T04:46:09.455Z,0.20
2023-05-11T04:48:36.226Z,0.20
2023-05-11T04:51:06.644Z,0.40
2023-05-11T04:53:38.146Z,0.20
2023-05-11T04:56:05.301Z,0.30
2023-05-11T04:58:31.880Z,0.20
2023-05-11T05:00:58.685Z,0.28
2023-05-11T05:03:25.413Z,0.35
2023-05-11T05:05:52.220Z,0.17
2023-05-11T05:08:18.968Z,0.30
2023-05-11T05:10:47.759Z,0.30
2023-05-11T05:13:14.476Z,0.25
2023-05-11T05:15:41.113Z,0.35
2023-05-11T05:18:07.917Z,0.20
2023-05-11T05:20:35.174Z,0.20
2023-05-11T05:23:02.449Z,0.30
2023-05-11T05:25:29.045Z,0.38
2023-05-11T05:27:55.649Z,0.30
2023-05-11T05:30:22.464Z,0.10
2023-05-11T05:32:50.311Z,0.20
2023-05-11T05:35:16.970Z,0.30
2023-05-11T05:37:43.975Z,0.68
2023-05-11T05:40:11.042Z,0.30
2023-05-11T05:42:43.792Z,0.20
2023-05-11T05:45:14.895Z,0.20
2023-05-11T05:47:42.162Z,0.20
2023-05-11T05:50:09.233Z,0.30
2023-05-11T05:52:35.886Z,0.50
2023-05-11T05:55:03.216Z,0.38
2023-05-11T05:57:30.097Z,0.20
2023-05-11T05:59:56.702Z,0.35
2023-05-11T06:02:25.877Z,0.20
2023-05-11T06:04:53.384Z,0.10
2023-05-11T06:07:20.338Z,0.68
2023-05-11T06:09:46.975Z,0.10
2023-05-11T06:12:14.140Z,0.20
2023-05-11T06:14:44.269Z,0.20
2023-05-11T06:17:10.912Z,0.20
2023-05-11T06:19:37.567Z,0.20
2023-05-11T06:22:06.675Z,0.15
2023-05-11T06:24:36.078Z,0.10
2023-05-11T06:27:03.280Z,0.17
2023-05-11T06:29:31.533Z,0.30
2023-05-11T06:31:58.897Z,0.10
2023-05-11T06:34:25.549Z,0.08
2023-05-11T06:36:52.169Z,0.13
2023-05-11T06:39:18.753Z,0.40
2023-05-11T06:41:45.488Z,0.20
2023-05-11T06:44:12.166Z,0.60
2023-05-11T06:46:42.999Z,0.20
2023-05-11T06:49:09.587Z,0.20
2023-05-11T06:51:36.238Z,0.10
2023-05-11T06:54:02.999Z,0.28
2023-05-11T06:56:30.112Z,0.30
2023-05-11T06:58:57.452Z,0.28
2023-05-11T07:01:24.093Z,0.30
2023-05-11T07:03:52.587Z,0.50
2023-05-11T07:06:20.880Z,0.82
2023-05-11T07:08:47.509Z,0.43
2023-05-11T07:11:14.484Z,0.30
2023-05-11T07:13:41.081Z,0.38
2023-05-11T07:16:07.724Z,0.20
2023-05-11T07:18:34.542Z,0.40
2023-05-11T07:21:01.124Z,0.20
2023-05-11T07:23:27.744Z,0.08
2023-05-11T07:25:54.462Z,0.10
2023-05-11T07:28:21.009Z,0.10
2023-05-11T07:30:47.770Z,0.20
2023-05-11T07:33:14.548Z,0.30
2023-05-11T07:35:43.504Z,0.20
2023-05-11T07:38:10.200Z,0.10
2023-05-11T07:40:36.871Z,0.13
2023-05-11T07:43:03.760Z,0.10
2023-05-11T07:45:30.387Z,0.10
2023-05-11T07:47:57.186Z,0.20
2023-05-11T07:50:24.609Z,0.20
2023-05-11T07:52:51.603Z,0.10
2023-05-11T07:55:18.544Z,0.10
2023-05-11T07:57:45.682Z,0.10
2023-05-11T08:00:12.860Z,0.10
2023-05-11T08:02:39.677Z,0.10
2023-05-11T08:05:06.948Z,0.10
2023-05-11T08:07:33.557Z,0.13
2023-05-11T08:10:00.190Z,0.10
2023-05-11T08:12:26.906Z,0.10
2023-05-11T08:14:53.496Z,0.10
2023-05-11T08:17:20.115Z,0.10
2023-05-11T08:19:46.701Z,0.10
2023-05-11T08:22:13.565Z,0.25
2023-05-11T08:24:40.384Z,0.10
2023-05-11T08:27:07.059Z,0.03
2023-05-11T08:29:33.608Z,0.10
2023-05-11T08:32:00.313Z,0.38
2023-05-11T08:34:27.202Z,0.10
2023-05-11T08:36:53.892Z,0.20
2023-05-11T08:39:38.995Z,0.20
2023-05-11T08:42:10.372Z,0.10
2023-05-11T08:44:38.674Z,0.10
2023-05-11T08:47:21.966Z,0.20
2023-05-11T08:49:51.533Z,0.20
2023-05-11T08:52:18.570Z,0.22
2023-05-11T08:54:48.709Z,0.10
2023-05-11T08:57:15.327Z,0.10
2023-05-11T08:59:44.954Z,0.10
2023-05-11T09:02:16.516Z,0.20
2023-05-11T09:04:46.078Z,0.17
2023-05-11T09:07:18.538Z,0.43
2023-05-11T09:09:47.056Z,0.20
2023-05-11T09:14:40.515Z,0.08
2023-05-11T09:17:07.292Z,0.20
2023-05-11T09:19:33.915Z,0.10
2023-05-11T09:22:00.731Z,0.38
2023-05-11T09:24:27.480Z,0.00
2023-05-11T09:27:07.316Z,0.20
2023-05-11T09:29:33.957Z,0.10
2023-05-11T09:32:00.564Z,0.00
2023-05-11T09:34:27.227Z,0.13
2023-05-11T09:36:56.015Z,0.20
2023-05-11T09:39:39.902Z,0.10
2023-05-11T09:42:23.780Z,0.10
2023-05-11T09:44:50.453Z,0.22
2023-05-11T09:47:19.045Z,0.10
2023-05-11T09:49:47.261Z,0.25
2023-05-11T09:52:16.219Z,0.10
2023-05-11T09:54:44.336Z,0.10
2023-05-11T09:59:55.534Z,0.10
2023-05-11T10:02:31.636Z,0.20
2023-05-11T10:05:00.466Z,0.10
2023-05-11T10:07:32.380Z,0.82
2023-05-11T10:10:01.917Z,0.30
2023-05-11T10:12:29.670Z,0.20
2023-05-11T10:15:04.423Z,0.20
2023-05-11T10:17:31.258Z,0.10
2023-05-11T10:19:58.817Z,0.20
2023-05-11T10:22:27.089Z,0.10
2023-05-11T10:24:54.797Z,0.10
2023-05-11T10:27:21.832Z,0.20
2023-05-11T10:29:49.167Z,0.10
2023-05-11T10:32:17.743Z,0.30
2023-05-11T10:34:45.577Z,0.20
2023-05-11T10:37:13.753Z,0.10
2023-05-11T10:42:22.770Z,0.07
2023-05-11T10:44:55.399Z,0.13
2023-05-11T10:47:37.152Z,0.22
2023-05-11T10:50:09.556Z,0.15
2023-05-11T10:52:54.363Z,0.10
2023-05-11T10:55:46.224Z,0.20
2023-05-11T10:58:19.857Z,0.20
2023-05-11T11:01:09.269Z,0.40
2023-05-11T11:03:36.023Z,0.55
2023-05-11T11:06:04.067Z,0.32
2023-05-11T11:11:31.032Z,0.50
2023-05-11T11:13:59.481Z,0.20
2023-05-11T11:16:26.206Z,0.20
2023-05-11T11:18:52.908Z,0.20
2023-05-11T11:21:41.600Z,0.20
2023-05-11T11:24:08.265Z,0.10
2023-05-11T11:26:50.894Z,0.50
2023-05-11T11:29:17.458Z,0.20
2023-05-11T11:31:44.376Z,0.10
2023-05-11T11:34:29.240Z,0.30
2023-05-11T11:36:55.814Z,0.30
2023-05-11T11:39:23.639Z,0.15
2023-05-11T11:42:21.405Z,0.30
2023-05-11T11:47:21.728Z,0.10
2023-05-11T11:50:11.566Z,0.20
2023-05-11T11:52:38.216Z,0.32
2023-05-11T11:55:05.406Z,0.20
2023-05-11T11:57:34.753Z,0.17
2023-05-11T12:00:06.672Z,0.10
2023-05-11T12:02:43.631Z,0.30
2023-05-11T12:05:19.142Z,0.20
2023-05-11T12:07:48.532Z,0.20
2023-05-11T12:10:20.259Z,0.22
2023-05-11T12:12:53.255Z,0.30
2023-05-11T12:15:28.384Z,0.20
2023-05-11T12:17:55.589Z,0.20
2023-05-11T12:20:23.174Z,0.20
2023-05-11T12:22:50.387Z,0.10
2023-05-11T12:25:19.114Z,0.33
2023-05-11T12:27:47.048Z,0.17
2023-05-11T12:30:23.220Z,0.30
2023-05-11T12:32:56.681Z,0.55
2023-05-11T12:35:25.064Z,0.38
2023-05-11T12:40:19.502Z,0.20
2023-05-11T12:42:55.651Z,0.60
2023-05-11T12:45:23.832Z,0.50
2023-05-11T12:47:52.721Z,0.28
2023-05-11T12:50:20.070Z,0.30
2023-05-11T12:52:47.548Z,0.23
2023-05-11T12:55:14.114Z,0.10
2023-05-11T12:57:40.951Z,0.20
2023-05-11T13:00:13.114Z,0.10
2023-05-11T13:02:51.586Z,0.20
2023-05-11T13:07:46.038Z,0.20
2023-05-11T13:10:13.404Z,0.30
2023-05-11T13:12:50.190Z,0.28
2023-05-11T13:15:16.921Z,0.40
2023-05-11T13:17:44.780Z,0.10
2023-05-11T13:20:27.830Z,0.20
2023-05-11T13:23:07.011Z,0.30
2023-05-11T13:25:35.771Z,0.17
2023-05-11T13:28:02.465Z,0.20
2023-05-11T13:30:29.145Z,0.30
2023-05-11T13:32:55.765Z,0.20
2023-05-11T13:35:22.825Z,0.35
2023-05-11T13:37:49.377Z,0.38
2023-05-11T13:40:16.130Z,0.57
2023-05-11T13:42:45.978Z,0.47
2023-05-11T13:45:12.545Z,0.30
2023-05-11T13:47:39.323Z,0.30
2023-05-11T13:50:06.714Z,0.50
2023-05-11T13:52:33.480Z,0.30
2023-05-11T13:55:00.075Z,0.15
2023-05-11T13:57:26.780Z,0.30
2023-05-11T13:59:53.478Z,0.20
2023-05-11T14:02:20.055Z,0.30
2023-05-11T14:04:46.655Z,0.35
2023-05-11T14:07:13.406Z,0.22
2023-05-11T14:09:40.101Z,0.30
2023-05-11T14:12:07.069Z,0.20
2023-05-11T14:14:33.639Z,0.13
2023-05-11T14:17:00.335Z,0.35
2023-05-11T14:19:27.190Z,0.32
2023-05-11T14:21:53.772Z,0.30
2023-05-11T14:24:20.432Z,0.10
2023-05-11T14:26:47.153Z,0.20
2023-05-11T14:29:13.711Z,0.20
2023-05-11T14:31:40.717Z,0.10
2023-05-11T14:34:07.309Z,0.10
2023-05-11T14:36:33.931Z,0.17
2023-05-11T14:39:00.520Z,0.10
2023-05-11T14:41:27.102Z,0.22
2023-05-11T14:43:53.736Z,0.10
2023-05-11T14:46:21.814Z,0.52
2023-05-11T14:48:48.562Z,0.30
2023-05-11T14:51:15.190Z,0.20
2023-05-11T14:53:41.746Z,0.10
2023-05-11T14:56:08.504Z,0.40
2023-05-11T14:58:35.279Z,0.30
2023-05-11T15:01:02.128Z,0.20
2023-05-11T15:03:28.752Z,0.17
2023-05-11T15:05:55.365Z,0.10
2023-05-11T15:08:29.531Z,0.10
2023-05-11T15:10:57.195Z,0.10
2023-05-11T15:13:24.096Z,0.00
2023-05-11T15:15:51.325Z,0.20
2023-05-11T15:18:18.155Z,0.10
2023-05-11T15:20:44.955Z,0.20
2023-05-11T15:23:11.786Z,0.10
2023-05-11T15:25:38.508Z,0.20
2023-05-11T15:28:05.497Z,0.10
2023-05-11T15:30:32.742Z,0.28
2023-05-11T15:32:59.687Z,0.10
2023-05-11T15:35:26.529Z,0.25
2023-05-11T15:37:53.155Z,0.20
2023-05-11T15:40:19.931Z,0.10
2023-05-11T15:42:46.536Z,0.17
2023-05-11T15:45:13.100Z,0.10
2023-05-11T15:47:39.734Z,0.40
2023-05-11T15:50:07.333Z,0.10
2023-05-11T15:52:33.905Z,0.30
2023-05-11T15:55:00.526Z,0.22
2023-05-11T15:57:27.117Z,0.30
2023-05-11T15:59:53.709Z,0.25
2023-05-11T16:02:20.343Z,0.65
2023-05-11T16:04:46.913Z,0.40
2023-05-11T16:07:13.553Z,0.50
2023-05-11T16:09:40.127Z,0.82
2023-05-11T16:12:07.179Z,0.40
2023-05-11T16:14:33.789Z,0.38
2023-05-11T16:17:03.614Z,0.20
2023-05-11T16:19:30.233Z,0.30
2023-05-11T16:21:57.251Z,0.38
2023-05-11T16:24:23.862Z,0.35
2023-05-11T16:26:51.087Z,0.38
2023-05-11T16:29:17.668Z,0.27
2023-05-11T16:31:44.382Z,0.47
2023-05-11T16:34:11.088Z,0.28
2023-05-11T16:36:38.052Z,0.30
2023-05-11T16:39:04.690Z,0.90
2023-05-11T16:41:31.398Z,0.40
2023-05-11T16:43:57.988Z,0.30
2023-05-11T16:46:24.784Z,0.30
2023-05-11T16:48:51.385Z,0.22
2023-05-11T16:51:18.005Z,0.38
2023-05-11T16:53:44.643Z,0.10
2023-05-11T16:56:11.272Z,0.32
2023-05-11T16:58:37.836Z,0.20
2023-05-11T17:01:04.605Z,0.22
2023-05-11T17:03:31.353Z,0.20
2023-05-11T17:05:58.414Z,0.30
2023-05-11T17:08:24.974Z,0.30
2023-05-11T17:10:51.565Z,0.40
2023-05-11T17:13:18.134Z,0.30
2023-05-11T17:15:44.734Z,0.52
2023-05-11T17:18:11.389Z,0.55
2023-05-11T17:20:38.002Z,1.20
2023-05-11T17:23:04.576Z,0.47
2023-05-11T17:25:31.139Z,0.45
2023-05-11T17:27:57.814Z,0.35
2023-05-11T17:30:30.029Z,0.30
2023-05-11T17:33:03.181Z,0.50
2023-05-11T17:35:29.968Z,0.20
2023-05-11T17:37:56.516Z,0.40
2023-05-11T17:40:23.070Z,0.60
2023-05-11T17:42:49.628Z,0.40
2023-05-11T17:45:16.824Z,0.40
2023-05-11T17:47:43.538Z,0.45
2023-05-11T17:50:10.551Z,0.38
2023-05-11T17:52:37.152Z,0.63
2023-05-11T17:55:04.060Z,0.47
2023-05-11T17:57:30.799Z,0.35
2023-05-11T17:59:57.368Z,0.50
2023-05-11T18:02:24.066Z,0.30
2023-05-11T18:04:50.865Z,0.35
2023-05-11T18:07:17.502Z,0.20
2023-05-11T18:09:44.341Z,0.20
2023-05-11T18:12:10.963Z,0.32
2023-05-11T18:14:37.776Z,0.30
2023-05-11T18:17:04.675Z,0.35
2023-05-11T18:19:31.422Z,0.45
2023-05-11T18:21:59.099Z,0.43
2023-05-11T18:24:25.822Z,0.25
2023-05-11T18:26:52.675Z,0.95
2023-05-11T18:29:19.614Z,0.80
2023-05-11T18:31:46.675Z,0.97
2023-05-11T18:34:13.341Z,0.80
2023-05-11T18:36:40.036Z,0.68
2023-05-11T18:39:06.612Z,0.30
2023-05-11T18:41:33.225Z,0.50
2023-05-11T18:43:59.808Z,0.52
2023-05-11T18:46:26.503Z,0.57
2023-05-11T18:48:53.076Z,0.30
2023-05-11T18:51:20.601Z,0.22
2023-05-11T18:53:47.252Z,0.38
2023-05-11T18:56:13.830Z,0.50
2023-05-11T18:58:40.463Z,0.35
2023-05-11T19:01:07.245Z,0.20
2023-05-11T19:03:33.966Z,0.30
2023-05-11T19:06:00.552Z,0.28
2023-05-11T19:08:27.710Z,0.10
2023-05-11T19:10:54.420Z,0.23
2023-05-11T19:13:21.057Z,0.20
2023-05-11T19:15:47.644Z,0.52
2023-05-11T19:18:14.401Z,0.25
2023-05-11T19:20:41.121Z,0.30
2023-05-11T19:23:07.717Z,0.40
2023-05-11T19:25:34.406Z,0.40
2023-05-11T19:28:04.012Z,0.40
2023-05-11T19:30:30.620Z,0.40
2023-05-11T19:32:57.323Z,0.32
2023-05-11T19:35:24.192Z,0.15
2023-05-11T19:37:50.749Z,0.30
2023-05-11T19:42:46.822Z,0.30
2023-05-11T19:45:14.775Z,0.47
2023-05-11T19:47:41.464Z,0.40
2023-05-11T19:50:08.840Z,0.20
2023-05-11T19:52:36.179Z,0.68
2023-05-11T19:55:03.709Z,0.63
2023-05-11T19:57:30.848Z,0.30
2023-05-11T19:59:58.315Z,0.35
2023-05-11T20:02:24.913Z,0.35
2023-05-11T20:04:51.499Z,0.20
2023-05-11T20:07:18.134Z,0.30
2023-05-11T20:09:44.800Z,0.30
2023-05-11T20:12:11.429Z,0.30
2023-05-11T20:14:38.103Z,0.10
2023-05-11T20:17:05.071Z,0.38
2023-05-11T20:19:31.663Z,0.32
2023-05-11T20:21:58.247Z,0.22
2023-05-11T20:24:24.879Z,0.25
2023-05-11T20:26:51.683Z,0.20
2023-05-11T20:29:18.454Z,0.22
2023-05-11T20:31:45.118Z,0.30
2023-05-11T20:34:12.008Z,0.20
2023-05-11T20:36:38.940Z,0.20
2023-05-11T20:39:05.793Z,0.20
2023-05-11T20:41:33.539Z,0.20
2023-05-11T20:44:00.168Z,0.28
2023-05-11T20:46:26.876Z,0.30
2023-05-11T20:48:53.503Z,0.20
2023-05-11T20:51:20.128Z,0.20
2023-05-11T20:53:46.712Z,0.25
2023-05-11T20:56:13.302Z,0.38
2023-05-11T20:58:39.994Z,0.20
2023-05-11T21:01:06.689Z,0.30
2023-05-11T21:03:33.462Z,0.40
2023-05-11T21:06:00.410Z,0.22
2023-05-11T21:08:27.278Z,0.43
2023-05-11T21:10:53.909Z,0.40
2023-05-11T21:13:20.450Z,0.35
2023-05-11T21:15:47.091Z,0.45
2023-05-11T21:18:13.810Z,0.50
2023-05-11T21:20:40.488Z,0.50
2023-05-11T21:23:07.255Z,0.40
2023-05-11T21:25:34.201Z,0.73
2023-05-11T21:28:00.891Z,0.70
2023-05-11T21:30:27.772Z,0.40
2023-05-11T21:32:54.391Z,0.40
2023-05-11T21:35:21.115Z,0.30
2023-05-11T21:37:47.697Z,0.40
2023-05-11T21:40:14.480Z,0.35
2023-05-11T21:42:41.091Z,0.40
2023-05-11T21:45:08.690Z,0.15
2023-05-11T21:47:35.295Z,0.47
2023-05-11T21:50:02.062Z,0.50
2023-05-11T21:52:28.672Z,0.40
2023-05-11T21:54:55.278Z,0.40
2023-05-11T21:57:22.017Z,0.45
2023-05-11T21:59:49.961Z,0.32
2023-05-11T22:02:17.844Z,0.30
2023-05-11T22:04:44.746Z,0.20
2023-05-11T22:07:11.377Z,0.28
2023-05-11T22:09:38.142Z,0.20
2023-05-11T22:12:05.080Z,0.25
2023-05-11T22:14:31.831Z,0.38
2023-05-11T22:16:58.575Z,0.40
2023-05-11T22:19:25.141Z,0.20
2023-05-11T22:21:52.290Z,0.20
2023-05-11T22:24:19.037Z,0.35
2023-05-11T22:26:45.718Z,0.35
2023-05-11T22:29:12.404Z,0.30
2023-05-11T22:31:39.174Z,0.40
2023-05-11T22:34:05.902Z,0.40
2023-05-11T22:36:32.660Z,0.50
2023-05-11T22:38:59.260Z,0.40
2023-05-11T22:41:25.905Z,0.20
2023-05-11T22:43:52.518Z,0.38
2023-05-11T22:46:19.178Z,0.40
2023-05-11T22:48:45.854Z,0.60
2023-05-11T22:51:12.741Z,0.30
2023-05-11T22:53:39.377Z,0.70
2023-05-11T22:56:07.041Z,0.40
2023-05-11T22:58:33.997Z,0.50
2023-05-11T23:01:01.083Z,0.73
2023-05-11T23:03:28.182Z,0.77
2023-05-11T23:05:55.335Z,0.60
2023-05-11T23:08:21.927Z,1.10
2023-05-11T23:10:52.559Z,1.00
2023-05-11T23:13:19.109Z,0.98
2023-05-11T23:15:45.717Z,1.10
2023-05-11T23:18:12.566Z,1.23
2023-05-11T23:20:39.448Z,1.42
2023-05-11T23:23:06.063Z,1.45
2023-05-11T23:25:32.640Z,1.10
2023-05-11T23:27:59.366Z,1.40
2023-05-11T23:30:26.164Z,1.60
2023-05-11T23:32:53.102Z,1.27
2023-05-11T23:35:19.808Z,2.03
2023-05-11T23:37:46.651Z,1.35
2023-05-11T23:40:13.441Z,1.48
2023-05-11T23:42:40.174Z,2.10
2023-05-11T23:45:07.399Z,1.63
2023-05-11T23:47:34.204Z,1.47
2023-05-11T23:50:01.052Z,1.25
2023-05-11T23:52:27.773Z,1.10
2023-05-11T23:54:54.309Z,1.60
2023-05-11T23:57:20.996Z,1.50
2023-05-11T23:59:47.561Z,1.85
